TimeCDT,TemperatureF,Dew PointF,Humidity,Sea Level PressureIn,VisibilityMPH,Wind Direction,Wind SpeedMPH,Gust SpeedMPH,PrecipitationIn,Events,Conditions,WindDirDegrees,DateUTC
12:58 AM,79.0,68.2,69,29.72,10.0,South,12.7,-,N/A,,Clear,190,2013-05-28 05:58:00
1:58 AM,78.3,68.4,71,29.69,10.0,South,15.0,23.0,N/A,,Clear,190,2013-05-28 06:58:00
2:58 AM,76.6,68.5,76,29.69,10.0,SSW,12.7,-,N/A,,Clear,200,2013-05-28 07:58:00
3:58 AM,75.2,68.9,81,29.69,10.0,South,12.7,-,N/A,,Mostly Cloudy,180,2013-05-28 08:58:00
4:58 AM,75.6,69.4,81,29.70,10.0,South,12.7,-,N/A,,Overcast,170,2013-05-28 09:58:00
5:58 AM,74.7,69.6,84,29.73,10.0,South,11.5,-,N/A,,Overcast,180,2013-05-28 10:58:00
6:58 AM,74.1,69.4,85,29.75,10.0,South,12.7,-,N/A,,Overcast,170,2013-05-28 11:58:00
7:58 AM,74.1,69.1,84,29.76,10.0,SSE,16.1,-,N/A,,Overcast,160,2013-05-28 12:58:00
8:58 AM,74.5,68.2,81,29.75,10.0,South,23.0,27.6,N/A,,Mostly Cloudy,170,2013-05-28 13:58:00
9:58 AM,76.3,68.0,75,29.76,10.0,South,23.0,31.1,N/A,,Partly Cloudy,170,2013-05-28 14:58:00
10:58 AM,77.4,66.7,70,29.75,10.0,South,25.3,33.4,N/A,,Scattered Clouds,180,2013-05-28 15:58:00
11:58 AM,77.4,64.9,65,29.76,10.0,South,20.7,31.1,N/A,,Overcast,190,2013-05-28 16:58:00
12:58 PM,76.6,65.5,68,29.75,10.0,South,15.0,-,N/A,,Scattered Clouds,170,2013-05-28 17:58:00
1:58 PM,76.8,65.3,67,29.75,10.0,South,18.4,26.5,N/A,,Overcast,180,2013-05-28 18:58:00
2:58 PM,78.3,66.0,66,29.73,10.0,South,18.4,29.9,N/A,,Overcast,190,2013-05-28 19:58:00
3:58 PM,78.8,65.8,64,29.73,10.0,South,23.0,32.2,N/A,,Scattered Clouds,170,2013-05-28 20:58:00
4:58 PM,79.5,66.0,63,29.73,10.0,South,16.1,28.8,N/A,,Partly Cloudy,180,2013-05-28 21:58:00
5:58 PM,78.4,66.2,66,29.68,10.0,SSE,18.4,-,N/A,,Clear,150,2013-05-28 22:58:00
6:58 PM,78.6,66.4,66,29.64,10.0,SSE,9.2,25.3,N/A,,Clear,160,2013-05-28 23:58:00
7:58 PM,77.7,67.3,70,29.68,10.0,SE,16.1,-,N/A,,Partly Cloudy,140,2013-05-29 00:58:00
8:58 PM,77.0,67.1,71,29.67,10.0,SSE,10.4,-,N/A,,Overcast,150,2013-05-29 01:58:00
9:58 PM,76.6,67.1,72,29.70,10.0,East,6.9,-,N/A,,Overcast,80,2013-05-29 02:58:00
10:58 PM,75.9,67.5,75,29.71,10.0,East,8.1,-,N/A,,Overcast,90,2013-05-29 03:58:00
11:58 PM,75.4,67.3,76,29.72,10.0,ESE,10.4,-,N/A,,Overcast,120,2013-05-29 04:58:00